sensor_id;sensor_type;location;lat;lon;timestamp;pressure;altitude;pressure_sealevel;temperature;humidity
82388;BME280;72027;47.420;9.310;2024-02-16T00:01:04;93278.13;;;5.99;78.28
82388;BME280;72027;47.420;9.310;2024-02-16T00:03:32;93277.03;;;5.97;78.97
82388;BME280;72027;47.420;9.310;2024-02-16T00:05:59;93269.22;;;5.95;78.52
82388;BME280;72027;47.420;9.310;2024-02-16T00:08:28;93273.59;;;5.92;78.94
82388;BME280;72027;47.420;9.310;2024-02-16T00:10:56;93265.34;;;5.92;78.87
82388;BME280;72027;47.420;9.310;2024-02-16T00:13:24;93264.69;;;5.88;78.02
82388;BME280;72027;47.420;9.310;2024-02-16T00:15:52;93269.84;;;5.86;78.47
82388;BME280;72027;47.420;9.310;2024-02-16T00:18:20;93267.88;;;5.87;78.41
82388;BME280;72027;47.420;9.310;2024-02-16T00:20:48;93258.44;;;5.88;77.45
82388;BME280;72027;47.420;9.310;2024-02-16T00:23:16;93265.88;;;5.87;77.59
82388;BME280;72027;47.420;9.310;2024-02-16T00:25:47;93270.84;;;5.92;76.31
82388;BME280;72027;47.420;9.310;2024-02-16T00:28:14;93277.03;;;5.97;76.46
82388;BME280;72027;47.420;9.310;2024-02-16T00:30:42;93266.81;;;5.97;76.59
82388;BME280;72027;47.420;9.310;2024-02-16T00:33:10;93273.84;;;5.98;76.50
82388;BME280;72027;47.420;9.310;2024-02-16T00:35:38;93274.28;;;5.97;77.13
82388;BME280;72027;47.420;9.310;2024-02-16T00:38:05;93280.97;;;5.95;77.15
82388;BME280;72027;47.420;9.310;2024-02-16T00:40:33;93275.94;;;5.94;77.42
82388;BME280;72027;47.420;9.310;2024-02-16T00:43:03;93272.44;;;5.93;76.99
82388;BME280;72027;47.420;9.310;2024-02-16T00:45:31;93275.94;;;5.94;76.89
82388;BME280;72027;47.420;9.310;2024-02-16T00:47:59;93285.72;;;5.95;77.28
82388;BME280;72027;47.420;9.310;2024-02-16T00:50:28;93280.97;;;5.95;76.96
82388;BME280;72027;47.420;9.310;2024-02-16T00:52:56;93277.81;;;5.97;76.69
82388;BME280;72027;47.420;9.310;2024-02-16T00:55:24;93277.38;;;5.99;76.73
82388;BME280;72027;47.420;9.310;2024-02-16T00:57:51;93284.06;;;5.98;76.41
82388;BME280;72027;47.420;9.310;2024-02-16T01:00:21;93282.97;;;5.95;76.39
82388;BME280;72027;47.420;9.310;2024-02-16T01:02:51;93280.97;;;5.95;76.83
82388;BME280;72027;47.420;9.310;2024-02-16T01:05:19;93281.44;;;5.94;76.94
82388;BME280;72027;47.420;9.310;2024-02-16T01:07:46;93279.44;;;5.94;76.85
82388;BME280;72027;47.420;9.310;2024-02-16T01:10:14;93286.16;;;5.93;77.21
82388;BME280;72027;47.420;9.310;2024-02-16T01:12:42;93285.34;;;5.93;76.83
82388;BME280;72027;47.420;9.310;2024-02-16T01:15:10;93288.22;;;5.89;77.18
82388;BME280;72027;47.420;9.310;2024-02-16T01:17:39;93285.91;;;5.88;77.05
82388;BME280;72027;47.420;9.310;2024-02-16T01:20:07;93281.63;;;5.87;76.71
82388;BME280;72027;47.420;9.310;2024-02-16T01:22:39;93287.88;;;5.87;76.61
82388;BME280;72027;47.420;9.310;2024-02-16T01:25:08;93286.69;;;5.88;76.35
82388;BME280;72027;47.420;9.310;2024-02-16T01:27:36;93290.63;;;5.87;76.26
82388;BME280;72027;47.420;9.310;2024-02-16T01:30:04;93293.06;;;5.85;76.46
82388;BME280;72027;47.420;9.310;2024-02-16T01:32:32;93289.22;;;5.83;76.45
82388;BME280;72027;47.420;9.310;2024-02-16T01:35:03;93293.91;;;5.82;75.40
82388;BME280;72027;47.420;9.310;2024-02-16T01:37:31;93295.81;;;5.85;75.47
82388;BME280;72027;47.420;9.310;2024-02-16T01:39:58;93295.34;;;5.87;74.88
82388;BME280;72027;47.420;9.310;2024-02-16T01:42:27;93293.06;;;5.85;75.69
82388;BME280;72027;47.420;9.310;2024-02-16T01:44:55;93290.31;;;5.85;76.44
82388;BME280;72027;47.420;9.310;2024-02-16T01:47:23;93285.66;;;5.82;76.55
82388;BME280;72027;47.420;9.310;2024-02-16T01:49:50;93292.72;;;5.83;76.27
82388;BME280;72027;47.420;9.310;2024-02-16T01:52:20;93293.16;;;5.82;76.29
82388;BME280;72027;47.420;9.310;2024-02-16T01:54:47;93278.31;;;5.79;76.21
82388;BME280;72027;47.420;9.310;2024-02-16T01:57:15;93279.88;;;5.80;76.25
82388;BME280;72027;47.420;9.310;2024-02-16T01:59:43;93279.88;;;5.80;75.98
82388;BME280;72027;47.420;9.310;2024-02-16T02:02:12;93283.81;;;5.79;76.08
82388;BME280;72027;47.420;9.310;2024-02-16T02:04:39;93279.94;;;5.77;76.02
82388;BME280;72027;47.420;9.310;2024-02-16T02:07:12;93278.84;;;5.74;76.38
82388;BME280;72027;47.420;9.310;2024-02-16T02:09:41;93274.56;;;5.73;75.63
82388;BME280;72027;47.420;9.310;2024-02-16T02:12:09;93272.25;;;5.71;76.27
82388;BME280;72027;47.420;9.310;2024-02-16T02:14:37;93276.34;;;5.67;76.78
82388;BME280;72027;47.420;9.310;2024-02-16T02:17:05;93272.47;;;5.64;76.61
82388;BME280;72027;47.420;9.310;2024-02-16T02:19:33;93273.34;;;5.61;75.97
82388;BME280;72027;47.420;9.310;2024-02-16T02:22:01;93272.56;;;5.61;75.87
82388;BME280;72027;47.420;9.310;2024-02-16T02:24:30;93265.53;;;5.60;76.30
82388;BME280;72027;47.420;9.310;2024-02-16T02:26:58;93265.44;;;5.63;76.06
82388;BME280;72027;47.420;9.310;2024-02-16T02:29:25;93265.34;;;5.67;75.79
82388;BME280;72027;47.420;9.310;2024-02-16T02:31:53;93255.88;;;5.68;75.66
82388;BME280;72027;47.420;9.310;2024-02-16T02:34:21;93258.19;;;5.69;76.05
82388;BME280;72027;47.420;9.310;2024-02-16T02:36:49;93260.06;;;5.72;75.89
82388;BME280;72027;47.420;9.310;2024-02-16T02:39:17;93260.41;;;5.74;76.23
82388;BME280;72027;47.420;9.310;2024-02-16T02:41:46;93263.47;;;5.77;76.36
82388;BME280;72027;47.420;9.310;2024-02-16T02:44:14;93265.09;;;5.74;75.95
82388;BME280;72027;47.420;9.310;2024-02-16T02:46:41;93265.91;;;5.74;76.11
82388;BME280;72027;47.420;9.310;2024-02-16T02:49:09;93267.53;;;5.72;76.43
82388;BME280;72027;47.420;9.310;2024-02-16T02:51:37;93271.94;;;5.69;76.89
82388;BME280;72027;47.420;9.310;2024-02-16T02:54:05;93273.59;;;5.67;76.97
82388;BME280;72027;47.420;9.310;2024-02-16T02:56:33;93272.47;;;5.64;76.75
82388;BME280;72027;47.420;9.310;2024-02-16T02:59:02;93276.41;;;5.63;76.88
82388;BME280;72027;47.420;9.310;2024-02-16T03:01:32;93282.78;;;5.60;76.86
82388;BME280;72027;47.420;9.310;2024-02-16T03:04:00;93276.53;;;5.60;76.83
82388;BME280;72027;47.420;9.310;2024-02-16T03:06:28;93279.72;;;5.58;77.05
82388;BME280;72027;47.420;9.310;2024-02-16T03:08:56;93281.34;;;5.56;76.80
82388;BME280;72027;47.420;9.310;2024-02-16T03:11:24;93276.72;;;5.52;77.07
82388;BME280;72027;47.420;9.310;2024-02-16T03:13:52;93278.47;;;5.46;77.04
82388;BME280;72027;47.420;9.310;2024-02-16T03:16:21;93288.78;;;5.42;77.56
82388;BME280;72027;47.420;9.310;2024-02-16T03:18:49;93295.94;;;5.40;77.17
82388;BME280;72027;47.420;9.310;2024-02-16T03:21:17;93283.19;;;5.33;76.95
82388;BME280;72027;47.420;9.310;2024-02-16T03:23:45;93288.00;;;5.29;76.85
82388;BME280;72027;47.420;9.310;2024-02-16T03:26:14;93285.69;;;5.27;77.30
82388;BME280;72027;47.420;9.310;2024-02-16T03:28:43;93301.81;;;5.25;77.39
82388;BME280;72027;47.420;9.310;2024-02-16T03:31:17;93302.69;;;5.22;77.46
82388;BME280;72027;47.420;9.310;2024-02-16T03:33:46;93292.13;;;5.21;77.15
82388;BME280;72027;47.420;9.310;2024-02-16T03:36:15;93294.13;;;5.20;76.84
82388;BME280;72027;47.420;9.310;2024-02-16T03:38:43;93292.13;;;5.21;76.68
82388;BME280;72027;47.420;9.310;2024-02-16T03:41:12;93298.84;;;5.20;76.84
82388;BME280;72027;47.420;9.310;2024-02-16T03:43:42;93303.13;;;5.21;76.94
82388;BME280;72027;47.420;9.310;2024-02-16T03:46:10;93295.69;;;5.21;76.52
82388;BME280;72027;47.420;9.310;2024-02-16T03:48:38;93300.38;;;5.21;77.08
82388;BME280;72027;47.420;9.310;2024-02-16T03:51:07;93307.09;;;5.20;76.51
82388;BME280;72027;47.420;9.310;2024-02-16T03:53:37;93302.47;;;5.17;77.01
82388;BME280;72027;47.420;9.310;2024-02-16T03:56:05;93305.63;;;5.15;76.76
82388;BME280;72027;47.420;9.310;2024-02-16T03:58:36;93302.13;;;5.15;76.48
82388;BME280;72027;47.420;9.310;2024-02-16T04:01:04;93310.78;;;5.13;76.36
82388;BME280;72027;47.420;9.310;2024-02-16T04:03:33;93314.31;;;5.14;76.63
82388;BME280;72027;47.420;9.310;2024-02-16T04:06:01;93315.16;;;5.11;76.73
82388;BME280;72027;47.420;9.310;2024-02-16T04:08:32;93320.34;;;5.08;76.88
82388;BME280;72027;47.420;9.310;2024-02-16T04:11:00;93307.78;;;5.07;76.39
82388;BME280;72027;47.420;9.310;2024-02-16T04:13:28;93311.75;;;5.06;75.99
82388;BME280;72027;47.420;9.310;2024-02-16T04:15:55;93314.50;;;5.06;75.63
82388;BME280;72027;47.420;9.310;2024-02-16T04:18:23;93307.03;;;5.07;76.27
82388;BME280;72027;47.420;9.310;2024-02-16T04:20:51;93311.75;;;5.06;75.80
82388;BME280;72027;47.420;9.310;2024-02-16T04:23:19;93312.97;;;5.05;75.85
82388;BME280;72027;47.420;9.310;2024-02-16T04:25:48;93321.63;;;5.04;75.86
82388;BME280;72027;47.420;9.310;2024-02-16T04:28:16;93314.59;;;5.03;75.79
82388;BME280;72027;47.420;9.310;2024-02-16T04:30:44;93305.69;;;4.99;75.94
82388;BME280;72027;47.420;9.310;2024-02-16T04:33:12;93306.09;;;4.97;75.91
82388;BME280;72027;47.420;9.310;2024-02-16T04:35:40;93316.75;;;4.95;76.06
82388;BME280;72027;47.420;9.310;2024-02-16T04:38:08;93314.34;;;4.97;75.99
82388;BME280;72027;47.420;9.310;2024-02-16T04:40:37;93321.38;;;4.98;76.37
82388;BME280;72027;47.420;9.310;2024-02-16T04:43:06;93318.19;;;5.00;76.87
82388;BME280;72027;47.420;9.310;2024-02-16T04:45:34;93319.00;;;5.00;77.15
82388;BME280;72027;47.420;9.310;2024-02-16T04:48:03;93313.50;;;5.00;78.33
82388;BME280;72027;47.420;9.310;2024-02-16T04:50:31;93311.88;;;5.03;76.51
82388;BME280;72027;47.420;9.310;2024-02-16T04:52:59;93307.91;;;5.04;77.55
82388;BME280;72027;47.420;9.310;2024-02-16T04:55:28;93312.09;;;5.08;77.02
82388;BME280;72027;47.420;9.310;2024-02-16T04:57:56;93312.41;;;5.11;78.00
82388;BME280;72027;47.420;9.310;2024-02-16T05:00:26;93315.50;;;5.13;77.43
82388;BME280;72027;47.420;9.310;2024-02-16T05:02:54;93324.84;;;5.15;78.27
82388;BME280;72027;47.420;9.310;2024-02-16T05:05:22;93324.78;;;5.19;78.42
82388;BME280;72027;47.420;9.310;2024-02-16T05:07:51;93327.06;;;5.20;78.46
82388;BME280;72027;47.420;9.310;2024-02-16T05:10:19;93325.44;;;5.23;78.66
82388;BME280;72027;47.420;9.310;2024-02-16T05:12:47;93324.16;;;5.27;78.61
82388;BME280;72027;47.420;9.310;2024-02-16T05:15:15;93331.09;;;5.32;78.07
82388;BME280;72027;47.420;9.310;2024-02-16T05:17:48;93325.59;;;5.32;77.80
82388;BME280;72027;47.420;9.310;2024-02-16T05:20:17;93333.84;;;5.32;78.42
82388;BME280;72027;47.420;9.310;2024-02-16T05:22:46;93329.97;;;5.29;78.06
82388;BME280;72027;47.420;9.310;2024-02-16T05:25:15;93332.38;;;5.27;78.21
82388;BME280;72027;47.420;9.310;2024-02-16T05:27:45;93324.66;;;5.22;77.66
82388;BME280;72027;47.420;9.310;2024-02-16T05:30:14;93329.41;;;5.22;78.15
82388;BME280;72027;47.420;9.310;2024-02-16T05:32:42;93328.19;;;5.23;77.74
82388;BME280;72027;47.420;9.310;2024-02-16T05:35:12;93331.38;;;5.21;77.42
82388;BME280;72027;47.420;9.310;2024-02-16T05:37:42;93328.63;;;5.21;77.69
82388;BME280;72027;47.420;9.310;2024-02-16T05:40:11;93323.91;;;5.22;77.99
82388;BME280;72027;47.420;9.310;2024-02-16T05:42:48;93323.56;;;5.20;78.07
82388;BME280;72027;47.420;9.310;2024-02-16T05:45:16;93325.19;;;5.17;77.94
82388;BME280;72027;47.420;9.310;2024-02-16T05:47:45;93317.72;;;5.18;78.27
82388;BME280;72027;47.420;9.310;2024-02-16T05:50:14;93327.84;;;5.21;77.56
82388;BME280;72027;47.420;9.310;2024-02-16T05:52:43;93321.56;;;5.20;78.21
82388;BME280;72027;47.420;9.310;2024-02-16T05:55:11;93334.19;;;5.18;78.02
82388;BME280;72027;47.420;9.310;2024-02-16T05:57:39;93332.22;;;5.18;77.22
82388;BME280;72027;47.420;9.310;2024-02-16T06:00:08;93333.84;;;5.16;77.77
82388;BME280;72027;47.420;9.310;2024-02-16T06:02:37;93339.03;;;5.14;77.61
82388;BME280;72027;47.420;9.310;2024-02-16T06:05:05;93333.63;;;5.10;77.33
82388;BME280;72027;47.420;9.310;2024-02-16T06:07:35;93338.44;;;5.06;76.80
82388;BME280;72027;47.420;9.310;2024-02-16T06:10:05;93347.09;;;5.04;76.60
82388;BME280;72027;47.420;9.310;2024-02-16T06:12:36;93343.59;;;5.04;76.00
82388;BME280;72027;47.420;9.310;2024-02-16T06:15:05;93340.09;;;5.03;77.24
82388;BME280;72027;47.420;9.310;2024-02-16T06:17:32;93345.22;;;5.01;77.15
82388;BME280;72027;47.420;9.310;2024-02-16T06:20:00;93347.63;;;4.99;77.65
82388;BME280;72027;47.420;9.310;2024-02-16T06:22:30;93344.22;;;4.95;77.29
82388;BME280;72027;47.420;9.310;2024-02-16T06:25:00;93342.66;;;4.94;76.84
82388;BME280;72027;47.420;9.310;2024-02-16T06:27:28;93337.50;;;4.96;76.81
82388;BME280;72027;47.420;9.310;2024-02-16T06:29:55;93339.84;;;4.98;76.88
82388;BME280;72027;47.420;9.310;2024-02-16T06:32:23;93340.59;;;4.98;76.72
82388;BME280;72027;47.420;9.310;2024-02-16T06:34:51;93351.06;;;5.03;76.90
82388;BME280;72027;47.420;9.310;2024-02-16T06:37:19;93349.19;;;5.00;76.70
82388;BME280;72027;47.420;9.310;2024-02-16T06:39:47;93358.25;;;4.97;76.63
82388;BME280;72027;47.420;9.310;2024-02-16T06:42:16;93359.91;;;4.95;76.45
82388;BME280;72027;47.420;9.310;2024-02-16T06:44:44;93370.09;;;4.94;76.37
82388;BME280;72027;47.420;9.310;2024-02-16T06:47:12;93367.72;;;4.96;76.40
82388;BME280;72027;47.420;9.310;2024-02-16T06:49:39;93368.41;;;5.00;77.16
82388;BME280;72027;47.420;9.310;2024-02-16T06:52:07;93365.13;;;5.05;76.53
82388;BME280;72027;47.420;9.310;2024-02-16T06:54:36;93367.69;;;5.13;76.39
82388;BME280;72027;47.420;9.310;2024-02-16T06:57:04;93369.38;;;5.23;76.93
82388;BME280;72027;47.420;9.310;2024-02-16T06:59:34;93372.84;;;5.40;76.40
82388;BME280;72027;47.420;9.310;2024-02-16T07:02:02;93373.63;;;5.69;75.29
82388;BME280;72027;47.420;9.310;2024-02-16T07:04:29;93377.34;;;6.05;75.39
82388;BME280;72027;47.420;9.310;2024-02-16T07:06:57;93382.22;;;6.39;74.33
82388;BME280;72027;47.420;9.310;2024-02-16T07:09:25;93389.59;;;6.68;72.68
82388;BME280;72027;47.420;9.310;2024-02-16T07:11:54;93395.28;;;6.86;71.92
82388;BME280;72027;47.420;9.310;2024-02-16T07:14:22;93394.09;;;7.00;71.09
82388;BME280;72027;47.420;9.310;2024-02-16T07:16:51;93402.97;;;7.17;70.32
82388;BME280;72027;47.420;9.310;2024-02-16T07:19:19;93399.06;;;7.40;69.53
82388;BME280;72027;47.420;9.310;2024-02-16T07:21:47;93405.34;;;7.62;68.84
82388;BME280;72027;47.420;9.310;2024-02-16T07:24:15;93409.78;;;7.82;68.50
82388;BME280;72027;47.420;9.310;2024-02-16T07:26:43;93405.78;;;7.96;68.20
82388;BME280;72027;47.420;9.310;2024-02-16T07:29:11;93407.38;;;8.06;67.49
82388;BME280;72027;47.420;9.310;2024-02-16T07:31:40;93409.59;;;8.20;67.07
82388;BME280;72027;47.420;9.310;2024-02-16T07:34:09;93416.56;;;8.34;67.20
82388;BME280;72027;47.420;9.310;2024-02-16T07:36:38;93418.13;;;8.57;67.58
82388;BME280;72027;47.420;9.310;2024-02-16T07:39:06;93414.28;;;8.95;66.99
82388;BME280;72027;47.420;9.310;2024-02-16T07:41:38;93417.91;;;9.41;66.38
82388;BME280;72027;47.420;9.310;2024-02-16T07:44:06;93416.59;;;9.74;62.82
82388;BME280;72027;47.420;9.310;2024-02-16T07:46:39;93414.59;;;9.92;62.66
82388;BME280;72027;47.420;9.310;2024-02-16T07:49:09;93418.56;;;10.01;61.19
82388;BME280;72027;47.420;9.310;2024-02-16T07:51:37;93416.72;;;10.16;60.35
82388;BME280;72027;47.420;9.310;2024-02-16T07:54:06;93409.63;;;10.33;60.55
82388;BME280;72027;47.420;9.310;2024-02-16T07:56:34;93421.28;;;10.56;60.22
82388;BME280;72027;47.420;9.310;2024-02-16T07:59:02;93423.09;;;10.68;59.93
82388;BME280;72027;47.420;9.310;2024-02-16T08:01:30;93426.16;;;10.70;58.69
82388;BME280;72027;47.420;9.310;2024-02-16T08:03:58;93426.16;;;10.70;58.15
82388;BME280;72027;47.420;9.310;2024-02-16T08:06:30;93427.81;;;10.77;57.80
82388;BME280;72027;47.420;9.310;2024-02-16T08:08:58;93432.03;;;11.06;57.47
82388;BME280;72027;47.420;9.310;2024-02-16T08:11:25;93428.97;;;11.37;55.84
82388;BME280;72027;47.420;9.310;2024-02-16T08:13:54;93429.91;;;11.58;55.78
82388;BME280;72027;47.420;9.310;2024-02-16T08:16:22;93434.75;;;11.72;54.61
82388;BME280;72027;47.420;9.310;2024-02-16T08:18:50;93436.97;;;11.83;53.32
82388;BME280;72027;47.420;9.310;2024-02-16T08:21:18;93439.84;;;11.98;52.87
82388;BME280;72027;47.420;9.310;2024-02-16T08:23:47;93435.97;;;12.19;52.59
82388;BME280;72027;47.420;9.310;2024-02-16T08:26:15;93447.03;;;12.43;51.83
82388;BME280;72027;47.420;9.310;2024-02-16T08:28:44;93439.94;;;12.72;51.61
82388;BME280;72027;47.420;9.310;2024-02-16T08:31:15;93454.69;;;13.08;51.86
82388;BME280;72027;47.420;9.310;2024-02-16T08:33:44;93449.53;;;13.51;50.22
82388;BME280;72027;47.420;9.310;2024-02-16T08:36:14;93451.69;;;13.97;49.28
82388;BME280;72027;47.420;9.310;2024-02-16T08:38:42;93453.69;;;14.37;48.26
82388;BME280;72027;47.420;9.310;2024-02-16T08:41:11;93448.69;;;14.67;48.06
82388;BME280;72027;47.420;9.310;2024-02-16T08:43:39;93454.16;;;15.08;47.02
82388;BME280;72027;47.420;9.310;2024-02-16T08:46:07;93458.50;;;15.47;46.82
82388;BME280;72027;47.420;9.310;2024-02-16T08:48:35;93453.44;;;15.82;45.58
82388;BME280;72027;47.420;9.310;2024-02-16T08:51:03;93455.88;;;16.12;45.08
82388;BME280;72027;47.420;9.310;2024-02-16T08:53:32;93463.34;;;16.38;44.57
82388;BME280;72027;47.420;9.310;2024-02-16T08:56:00;93458.59;;;16.61;44.02
82388;BME280;72027;47.420;9.310;2024-02-16T08:58:30;93458.66;;;16.83;43.62
82388;BME280;72027;47.420;9.310;2024-02-16T09:00:57;93458.69;;;16.94;43.76
82388;BME280;72027;47.420;9.310;2024-02-16T09:03:25;93452.84;;;17.09;43.38
82388;BME280;72027;47.420;9.310;2024-02-16T09:05:53;93464.56;;;17.30;43.04
82388;BME280;72027;47.420;9.310;2024-02-16T09:08:21;93453.88;;;17.46;42.46
82388;BME280;72027;47.420;9.310;2024-02-16T09:10:49;93462.25;;;17.68;41.95
82388;BME280;72027;47.420;9.310;2024-02-16T09:13:17;93464.31;;;17.85;40.63
82388;BME280;72027;47.420;9.310;2024-02-16T09:15:52;93464.75;;;18.11;41.23
82388;BME280;72027;47.420;9.310;2024-02-16T09:18:19;93458.56;;;18.35;39.91
82388;BME280;72027;47.420;9.310;2024-02-16T09:20:47;93462.31;;;18.49;40.37
82388;BME280;72027;47.420;9.310;2024-02-16T09:23:15;93461.56;;;18.48;40.78
82388;BME280;72027;47.420;9.310;2024-02-16T09:25:43;93475.16;;;18.27;40.12
82388;BME280;72027;47.420;9.310;2024-02-16T09:28:12;93468.34;;;18.06;40.14
82388;BME280;72027;47.420;9.310;2024-02-16T09:30:46;93477.03;;;17.74;40.83
82388;BME280;72027;47.420;9.310;2024-02-16T09:33:15;93474.75;;;17.56;42.19
82388;BME280;72027;47.420;9.310;2024-02-16T09:35:43;93471.69;;;17.37;42.71
82388;BME280;72027;47.420;9.310;2024-02-16T09:38:11;93481.63;;;17.21;43.46
82388;BME280;72027;47.420;9.310;2024-02-16T09:40:39;93477.50;;;16.94;43.19
82388;BME280;72027;47.420;9.310;2024-02-16T09:43:07;93476.22;;;16.78;43.56
82388;BME280;72027;47.420;9.310;2024-02-16T09:45:34;93472.03;;;16.57;43.21
82388;BME280;72027;47.420;9.310;2024-02-16T09:48:06;93468.94;;;16.43;43.98
82388;BME280;72027;47.420;9.310;2024-02-16T09:50:38;93476.53;;;16.32;44.74
82388;BME280;72027;47.420;9.310;2024-02-16T09:53:06;93478.00;;;16.21;44.24
82388;BME280;72027;47.420;9.310;2024-02-16T09:55:36;93479.56;;;16.28;45.27
82388;BME280;72027;47.420;9.310;2024-02-16T09:58:04;93476.38;;;16.58;45.75
82388;BME280;72027;47.420;9.310;2024-02-16T10:00:32;93483.13;;;17.00;44.48
82388;BME280;72027;47.420;9.310;2024-02-16T10:03:01;93485.19;;;17.33;44.44
82388;BME280;72027;47.420;9.310;2024-02-16T10:05:28;93486.69;;;17.62;43.15
82388;BME280;72027;47.420;9.310;2024-02-16T10:07:59;93481.34;;;17.92;42.94
82388;BME280;72027;47.420;9.310;2024-02-16T10:10:28;93486.63;;;18.18;42.62
82388;BME280;72027;47.420;9.310;2024-02-16T10:13:01;93487.34;;;18.41;42.42
82388;BME280;72027;47.420;9.310;2024-02-16T10:15:30;93493.63;;;18.64;41.96
82388;BME280;72027;47.420;9.310;2024-02-16T10:17:59;93491.28;;;18.68;41.52
82388;BME280;72027;47.420;9.310;2024-02-16T10:20:27;93483.16;;;18.65;39.64
82388;BME280;72027;47.420;9.310;2024-02-16T10:23:09;93490.63;;;18.51;41.15
82388;BME280;72027;47.420;9.310;2024-02-16T10:25:39;93495.25;;;18.32;41.76
82388;BME280;72027;47.420;9.310;2024-02-16T10:28:09;93504.00;;;18.11;42.35
82388;BME280;72027;47.420;9.310;2024-02-16T10:30:40;93499.16;;;18.00;43.05
82388;BME280;72027;47.420;9.310;2024-02-16T10:33:09;93504.78;;;17.95;43.56
82388;BME280;72027;47.420;9.310;2024-02-16T10:35:39;93501.22;;;17.83;44.65
82388;BME280;72027;47.420;9.310;2024-02-16T10:38:09;93500.69;;;17.73;44.35
82388;BME280;72027;47.420;9.310;2024-02-16T10:40:39;93503.50;;;17.68;44.49
82388;BME280;72027;47.420;9.310;2024-02-16T10:43:08;93501.72;;;17.65;45.76
82388;BME280;72027;47.420;9.310;2024-02-16T10:45:38;93504.00;;;17.44;43.00
82388;BME280;72027;47.420;9.310;2024-02-16T10:48:07;93511.88;;;17.17;43.99
82388;BME280;72027;47.420;9.310;2024-02-16T10:50:36;93503.44;;;16.89;44.83
82388;BME280;72027;47.420;9.310;2024-02-16T10:53:11;93507.44;;;16.71;45.54
82388;BME280;72027;47.420;9.310;2024-02-16T10:55:40;93501.28;;;16.61;46.02
82388;BME280;72027;47.420;9.310;2024-02-16T10:58:10;93509.19;;;16.63;45.95
82388;BME280;72027;47.420;9.310;2024-02-16T11:00:48;93515.53;;;16.58;45.23
82388;BME280;72027;47.420;9.310;2024-02-16T11:03:17;93495.44;;;16.59;45.82
82388;BME280;72027;47.420;9.310;2024-02-16T11:05:45;93500.59;;;16.78;45.61
82388;BME280;72027;47.420;9.310;2024-02-16T11:08:16;93501.16;;;16.99;45.04
82388;BME280;72027;47.420;9.310;2024-02-16T11:10:54;93498.16;;;17.30;44.72
82388;BME280;72027;47.420;9.310;2024-02-16T11:13:23;93510.91;;;17.59;44.78
82388;BME280;72027;47.420;9.310;2024-02-16T11:15:58;93512.16;;;17.87;44.12
82388;BME280;72027;47.420;9.310;2024-02-16T11:18:27;93509.59;;;18.11;43.46
82388;BME280;72027;47.420;9.310;2024-02-16T11:20:55;93508.25;;;18.29;43.03
82388;BME280;72027;47.420;9.310;2024-02-16T11:23:28;93524.84;;;18.33;41.78
82388;BME280;72027;47.420;9.310;2024-02-16T11:26:00;93523.63;;;18.00;42.62
82388;BME280;72027;47.420;9.310;2024-02-16T11:28:31;93521.84;;;17.69;43.30
82388;BME280;72027;47.420;9.310;2024-02-16T11:30:59;93517.53;;;17.45;44.75
82388;BME280;72027;47.420;9.310;2024-02-16T11:33:28;93519.78;;;17.13;45.46
82388;BME280;72027;47.420;9.310;2024-02-16T11:35:57;93519.97;;;16.87;45.93
82388;BME280;72027;47.420;9.310;2024-02-16T11:38:25;93522.44;;;16.68;45.76
82388;BME280;72027;47.420;9.310;2024-02-16T11:41:01;93527.00;;;16.65;45.90
82388;BME280;72027;47.420;9.310;2024-02-16T11:43:30;93519.09;;;16.58;45.93
82388;BME280;72027;47.420;9.310;2024-02-16T11:45:59;93516.00;;;16.50;47.24
82388;BME280;72027;47.420;9.310;2024-02-16T11:48:26;93519.75;;;16.31;46.62
82388;BME280;72027;47.420;9.310;2024-02-16T11:50:59;93513.34;;;16.30;46.86
82388;BME280;72027;47.420;9.310;2024-02-16T11:53:28;93514.22;;;16.47;47.18
82388;BME280;72027;47.420;9.310;2024-02-16T11:55:57;93517.31;;;16.61;47.21
82388;BME280;72027;47.420;9.310;2024-02-16T11:58:26;93518.09;;;16.67;46.46
82388;BME280;72027;47.420;9.310;2024-02-16T12:00:55;93519.44;;;16.77;46.97
82388;BME280;72027;47.420;9.310;2024-02-16T12:03:28;93511.03;;;16.77;46.61
82388;BME280;72027;47.420;9.310;2024-02-16T12:05:57;93518.31;;;16.58;47.27
82388;BME280;72027;47.420;9.310;2024-02-16T12:11:02;93518.13;;;16.13;48.22
82388;BME280;72027;47.420;9.310;2024-02-16T12:13:30;93512.19;;;15.99;48.65
82388;BME280;72027;47.420;9.310;2024-02-16T12:15:58;93524.56;;;15.87;48.17
82388;BME280;72027;47.420;9.310;2024-02-16T12:18:26;93517.25;;;15.63;49.18
82388;BME280;72027;47.420;9.310;2024-02-16T12:20:59;93516.88;;;15.50;49.86
82388;BME280;72027;47.420;9.310;2024-02-16T12:23:28;93518.06;;;15.38;50.38
82388;BME280;72027;47.420;9.310;2024-02-16T12:25:57;93519.78;;;15.30;49.98
82388;BME280;72027;47.420;9.310;2024-02-16T12:28:27;93511.25;;;15.13;50.56
82388;BME280;72027;47.420;9.310;2024-02-16T12:30:55;93523.28;;;14.98;51.24
82388;BME280;72027;47.420;9.310;2024-02-16T12:33:25;93524.22;;;14.90;52.19
82388;BME280;72027;47.420;9.310;2024-02-16T12:35:53;93525.41;;;14.83;52.17
82388;BME280;72027;47.420;9.310;2024-02-16T12:38:21;93527.59;;;14.73;52.22
82388;BME280;72027;47.420;9.310;2024-02-16T12:40:49;93528.56;;;14.70;52.88
82388;BME280;72027;47.420;9.310;2024-02-16T12:43:17;93528.72;;;14.61;53.69
82388;BME280;72027;47.420;9.310;2024-02-16T12:45:48;93532.56;;;14.64;53.32
82388;BME280;72027;47.420;9.310;2024-02-16T12:48:15;93527.03;;;14.69;53.46
82388;BME280;72027;47.420;9.310;2024-02-16T12:50:44;93529.56;;;14.67;53.54
82388;BME280;72027;47.420;9.310;2024-02-16T12:53:13;93523.84;;;14.77;53.34
82388;BME280;72027;47.420;9.310;2024-02-16T12:55:41;93530.22;;;14.83;53.29
82388;BME280;72027;47.420;9.310;2024-02-16T12:58:09;93536.84;;;14.85;53.78
82388;BME280;72027;47.420;9.310;2024-02-16T13:00:37;93527.22;;;14.86;53.12
82388;BME280;72027;47.420;9.310;2024-02-16T13:03:07;93537.34;;;14.84;52.34
82388;BME280;72027;47.420;9.310;2024-02-16T13:05:35;93523.13;;;14.82;53.79
82388;BME280;72027;47.420;9.310;2024-02-16T13:08:03;93523.13;;;14.82;53.30
82388;BME280;72027;47.420;9.310;2024-02-16T13:10:31;93530.72;;;14.81;52.45
82388;BME280;72027;47.420;9.310;2024-02-16T13:12:59;93523.00;;;14.70;52.67
82388;BME280;72027;47.420;9.310;2024-02-16T13:15:27;93522.22;;;14.70;53.80
82388;BME280;72027;47.420;9.310;2024-02-16T13:17:56;93516.72;;;14.75;53.86